createdAt,value
2019-02-10T00:01:51.492Z,8.23
2019-02-10T00:04:19.319Z,9.63
2019-02-10T00:06:47.211Z,9.35
2019-02-10T00:09:15.018Z,6.60
2019-02-10T00:11:42.957Z,9.43
2019-02-10T00:14:11.390Z,9.70
2019-02-10T00:16:39.142Z,7.37
2019-02-10T00:19:07.089Z,7.40
2019-02-10T00:21:35.061Z,7.00
2019-02-10T00:24:02.954Z,7.67
2019-02-10T00:26:30.882Z,5.85
2019-02-10T00:28:58.840Z,11.10
2019-02-10T00:31:26.796Z,8.13
2019-02-10T00:33:54.587Z,8.73
2019-02-10T00:36:22.469Z,9.30
2019-02-10T00:38:50.411Z,9.63
2019-02-10T00:41:18.288Z,9.23
2019-02-10T00:43:46.434Z,10.25
2019-02-10T00:46:14.205Z,8.60
2019-02-10T00:48:42.092Z,9.30
2019-02-10T00:51:10.165Z,8.53
2019-02-10T00:53:37.989Z,11.63
2019-02-10T00:56:05.952Z,10.78
2019-02-10T00:58:33.809Z,11.43
2019-02-10T01:01:01.724Z,6.83
2019-02-10T01:03:29.526Z,12.33
2019-02-10T01:05:57.414Z,8.93
2019-02-10T01:08:25.538Z,8.43
2019-02-10T01:10:53.434Z,7.20
2019-02-10T01:13:21.357Z,7.25
2019-02-10T01:15:49.109Z,7.37
2019-02-10T01:18:18.591Z,8.68
2019-02-10T01:20:46.601Z,7.67
2019-02-10T01:23:14.652Z,8.30
2019-02-10T01:25:42.481Z,7.35
2019-02-10T01:28:10.371Z,7.87
2019-02-10T01:30:39.111Z,10.03
2019-02-10T01:33:07.052Z,7.83
2019-02-10T01:35:35.190Z,9.47
2019-02-10T01:38:04.395Z,7.85
2019-02-10T01:40:33.022Z,6.20
2019-02-10T01:43:00.867Z,8.58
2019-02-10T01:45:28.724Z,7.78
2019-02-10T01:47:56.581Z,12.77
2019-02-10T01:50:24.785Z,8.48
2019-02-10T01:52:52.704Z,8.23
2019-02-10T01:55:20.472Z,7.10
2019-02-10T01:57:48.618Z,8.43
2019-02-10T02:00:16.573Z,9.13
2019-02-10T02:02:44.762Z,9.47
2019-02-10T02:05:13.031Z,8.05
2019-02-10T02:07:41.012Z,9.87
2019-02-10T02:10:10.797Z,6.78
2019-02-10T02:12:39.051Z,9.60
2019-02-10T02:15:09.870Z,12.93
2019-02-10T02:17:37.810Z,12.18
2019-02-10T02:20:06.122Z,8.85
2019-02-10T02:22:34.103Z,11.48
2019-02-10T02:25:01.970Z,9.47
2019-02-10T02:27:29.906Z,11.78
2019-02-10T02:29:57.661Z,6.67
2019-02-10T02:32:25.586Z,7.33
2019-02-10T02:34:53.477Z,6.05
2019-02-10T02:37:21.320Z,11.43
2019-02-10T02:39:49.106Z,12.70
2019-02-10T02:42:16.974Z,5.97
2019-02-10T02:44:44.824Z,7.60
2019-02-10T02:47:12.951Z,9.48
2019-02-10T02:49:41.539Z,6.85
2019-02-10T02:52:09.994Z,7.35
2019-02-10T02:54:37.918Z,10.82
2019-02-10T02:57:05.679Z,8.65
2019-02-10T02:59:33.461Z,7.70
2019-02-10T03:04:45.866Z,8.95
2019-02-10T03:07:18.164Z,8.70
2019-02-10T03:09:43.442Z,15.08
2019-02-10T03:12:11.307Z,7.40
2019-02-10T03:14:39.992Z,7.12
2019-02-10T03:17:07.978Z,11.43
2019-02-10T03:19:36.039Z,6.47
2019-02-10T03:22:04.067Z,9.80
2019-02-10T03:24:31.926Z,6.47
2019-02-10T03:26:59.833Z,8.68
2019-02-10T03:29:27.743Z,6.53
2019-02-10T03:31:56.151Z,7.78
2019-02-10T03:34:23.938Z,6.53
2019-02-10T03:36:51.805Z,6.87
2019-02-10T03:39:19.703Z,6.87
2019-02-10T03:41:47.781Z,8.10
2019-02-10T03:44:15.598Z,5.92
2019-02-10T03:46:44.413Z,6.22
2019-02-10T03:49:12.251Z,8.83
2019-02-10T03:51:40.064Z,8.80
2019-02-10T03:54:07.925Z,8.98
2019-02-10T03:56:35.938Z,10.65
2019-02-10T03:59:03.979Z,9.88
2019-02-10T04:01:32.007Z,7.72
2019-02-10T04:04:00.042Z,10.28
2019-02-10T04:06:27.938Z,8.08
2019-02-10T04:08:55.878Z,7.10
2019-02-10T04:11:23.685Z,9.18
2019-02-10T04:13:51.520Z,9.58
2019-02-10T04:16:19.400Z,8.85
2019-02-10T04:18:47.264Z,9.98
2019-02-10T04:21:15.174Z,8.85
2019-02-10T04:23:43.143Z,13.58
2019-02-10T04:26:11.099Z,8.30
2019-02-10T04:28:39.847Z,13.30
2019-02-10T04:31:07.714Z,9.15
2019-02-10T04:33:35.695Z,7.62
2019-02-10T04:36:03.590Z,7.58
2019-02-10T04:38:31.392Z,6.40
2019-02-10T04:40:59.238Z,6.20
2019-02-10T04:43:27.024Z,4.95
2019-02-10T04:45:54.848Z,9.33
2019-02-10T04:48:24.588Z,9.55
2019-02-10T04:50:52.479Z,11.20
2019-02-10T04:53:20.767Z,9.75
2019-02-10T04:56:11.498Z,6.47
2019-02-10T04:58:39.386Z,10.13
2019-02-10T05:01:07.446Z,4.90
2019-02-10T05:03:35.482Z,6.50
2019-02-10T05:06:03.517Z,7.03
2019-02-10T05:08:31.337Z,9.08
2019-02-10T05:10:59.324Z,6.15
2019-02-10T05:13:27.192Z,7.40
2019-02-10T05:15:55.045Z,7.22
2019-02-10T05:18:23.422Z,8.75
2019-02-10T05:20:51.331Z,9.65
2019-02-10T05:23:19.906Z,6.15
2019-02-10T05:25:47.899Z,4.87
2019-02-10T05:28:15.749Z,8.58
2019-02-10T05:30:43.646Z,7.03
2019-02-10T05:33:11.531Z,7.67
2019-02-10T05:35:39.401Z,8.40
2019-02-10T05:38:07.202Z,8.50
2019-02-10T05:40:35.188Z,8.35
2019-02-10T05:43:03.022Z,22.82
2019-02-10T05:45:30.790Z,24.95
2019-02-10T05:47:58.634Z,25.30
2019-02-10T05:50:26.513Z,34.33
2019-02-10T05:52:54.974Z,28.07
2019-02-10T05:55:22.915Z,24.40
2019-02-10T05:57:50.753Z,34.15
2019-02-10T06:00:19.335Z,74.05
2019-02-10T06:02:47.128Z,133.30
2019-02-10T06:05:17.821Z,65.72
2019-02-10T06:07:45.742Z,33.28
2019-02-10T06:10:13.605Z,34.60
2019-02-10T06:12:41.513Z,24.37
2019-02-10T06:15:09.628Z,20.37
2019-02-10T06:17:37.661Z,19.12
2019-02-10T06:20:06.005Z,9.90
2019-02-10T06:22:33.887Z,12.65
2019-02-10T06:25:01.788Z,10.55
2019-02-10T06:27:29.881Z,8.50
2019-02-10T06:29:58.088Z,13.70
2019-02-10T06:32:26.173Z,14.50
2019-02-10T06:34:54.043Z,9.35
2019-02-10T06:37:21.936Z,7.95
2019-02-10T06:39:50.436Z,10.75
2019-02-10T06:42:18.371Z,9.78
2019-02-10T06:44:48.421Z,11.40
2019-02-10T06:47:16.521Z,12.65
2019-02-10T06:49:44.506Z,12.85
2019-02-10T06:52:13.368Z,10.10
2019-02-10T06:54:52.367Z,8.83
2019-02-10T06:57:22.194Z,7.50
2019-02-10T06:59:55.565Z,7.62
2019-02-10T07:02:39.529Z,12.23
2019-02-10T07:05:09.104Z,9.93
2019-02-10T07:07:36.987Z,12.93
2019-02-10T07:10:05.715Z,8.60
2019-02-10T07:12:47.134Z,10.55
2019-02-10T07:15:51.194Z,12.73
2019-02-10T07:18:55.126Z,12.03
2019-02-10T07:21:24.585Z,10.55
2019-02-10T07:23:56.465Z,9.68
2019-02-10T07:26:56.569Z,16.20
2019-02-10T07:30:09.994Z,14.53
2019-02-10T07:32:42.064Z,11.03
2019-02-10T07:36:06.361Z,15.93
2019-02-10T07:39:04.884Z,14.30
2019-02-10T07:42:23.633Z,13.62
2019-02-10T07:45:32.906Z,9.85
2019-02-10T07:48:18.546Z,10.38
2019-02-10T07:51:20.066Z,12.60
2019-02-10T07:54:10.800Z,13.22
2019-02-10T07:56:54.388Z,13.00
2019-02-10T07:59:58.911Z,12.55
2019-02-10T08:03:05.788Z,14.93
2019-02-10T08:06:23.188Z,10.90
2019-02-10T08:09:19.599Z,12.37
2019-02-10T08:12:38.357Z,14.23
2019-02-10T08:15:33.386Z,14.28
2019-02-10T08:18:35.001Z,17.23
2019-02-10T08:21:47.173Z,12.43
2019-02-10T08:24:28.254Z,15.03
2019-02-10T08:27:22.982Z,14.80
2019-02-10T08:30:22.160Z,14.53
2019-02-10T08:33:11.741Z,18.32
2019-02-10T08:36:26.631Z,19.98
2019-02-10T08:39:27.913Z,16.15
2019-02-10T08:42:13.136Z,17.98
2019-02-10T08:45:11.604Z,15.90
2019-02-10T08:48:17.392Z,20.30
2019-02-10T08:51:24.907Z,15.48
2019-02-10T08:53:52.903Z,16.10
2019-02-10T08:56:20.981Z,42.62
2019-02-10T08:58:48.897Z,23.45
2019-02-10T09:01:16.829Z,40.65
2019-02-10T09:03:44.611Z,40.90
2019-02-10T09:06:12.449Z,41.10
2019-02-10T09:08:40.749Z,145.10
2019-02-10T09:11:08.859Z,113.37
2019-02-10T09:13:36.667Z,101.02
2019-02-10T09:16:04.652Z,65.32
2019-02-10T09:18:33.062Z,105.15
2019-02-10T09:21:00.962Z,97.17
2019-02-10T09:23:28.835Z,76.77
2019-02-10T09:25:56.759Z,83.15
2019-02-10T09:28:26.456Z,57.07
2019-02-10T09:30:54.460Z,47.97
2019-02-10T09:33:22.961Z,28.73
2019-02-10T09:35:50.895Z,22.37
2019-02-10T09:38:20.037Z,27.47
2019-02-10T09:40:48.042Z,34.83
2019-02-10T09:43:15.912Z,27.60
2019-02-10T09:45:43.866Z,27.30
2019-02-10T09:48:11.877Z,23.50
2019-02-10T09:50:39.755Z,21.40
2019-02-10T09:53:07.741Z,22.73
2019-02-10T09:55:35.672Z,22.13
2019-02-10T09:58:03.696Z,14.70
2019-02-10T10:00:31.759Z,40.38
2019-02-10T10:02:59.696Z,18.53
2019-02-10T10:05:27.652Z,22.30
2019-02-10T10:07:55.713Z,16.00
2019-02-10T10:10:23.636Z,13.87
2019-02-10T10:12:51.603Z,16.40
2019-02-10T10:15:19.583Z,15.17
2019-02-10T10:17:48.678Z,12.27
2019-02-10T10:20:16.722Z,16.03
2019-02-10T10:22:47.228Z,16.57
2019-02-10T10:25:15.151Z,13.18
2019-02-10T10:27:43.057Z,12.90
2019-02-10T10:30:13.529Z,16.87
2019-02-10T10:32:41.389Z,18.50
2019-02-10T10:35:09.564Z,18.13
2019-02-10T10:37:37.813Z,14.87
2019-02-10T10:40:07.419Z,17.97
2019-02-10T10:42:35.385Z,15.43
2019-02-10T10:45:03.513Z,17.03
2019-02-10T10:47:31.445Z,18.63
2019-02-10T10:49:59.377Z,24.70
2019-02-10T10:52:27.178Z,35.53
2019-02-10T10:54:55.205Z,14.80
2019-02-10T10:57:25.123Z,14.20
2019-02-10T10:59:52.901Z,17.03
2019-02-10T11:02:21.040Z,24.40
2019-02-10T11:04:48.950Z,37.83
2019-02-10T11:07:16.792Z,24.63
2019-02-10T11:09:45.066Z,29.13
2019-02-10T11:12:12.961Z,20.37
2019-02-10T11:14:40.882Z,18.17
2019-02-10T11:17:10.536Z,16.13
2019-02-10T11:19:38.611Z,18.10
2019-02-10T11:22:06.506Z,17.60
2019-02-10T11:24:34.418Z,13.50
2019-02-10T11:27:04.389Z,25.63
2019-02-10T11:29:32.316Z,14.07
2019-02-10T11:32:00.236Z,15.93
2019-02-10T11:34:28.050Z,13.17
2019-02-10T11:36:56.556Z,11.93
2019-02-10T11:39:24.508Z,18.30
2019-02-10T11:41:52.425Z,13.03
2019-02-10T11:44:20.251Z,12.67
2019-02-10T11:46:48.164Z,16.87
2019-02-10T11:49:16.053Z,12.20
2019-02-10T11:51:43.850Z,17.23
2019-02-10T11:54:12.858Z,15.73
2019-02-10T11:56:41.192Z,14.77
2019-02-10T11:59:09.074Z,11.30
2019-02-10T12:01:36.947Z,16.77
2019-02-10T12:04:04.843Z,11.77
2019-02-10T12:06:32.811Z,12.77
2019-02-10T12:09:00.719Z,12.67
2019-02-10T12:11:29.316Z,12.27
2019-02-10T12:13:57.099Z,13.47
2019-02-10T12:16:25.093Z,16.27
2019-02-10T12:18:53.146Z,13.47
2019-02-10T12:21:21.364Z,16.30
2019-02-10T12:23:49.177Z,15.23
2019-02-10T12:26:17.043Z,18.53
2019-02-10T12:28:44.953Z,15.63
2019-02-10T12:31:12.944Z,15.47
2019-02-10T12:33:41.034Z,13.80
2019-02-10T12:36:09.102Z,13.33
2019-02-10T12:38:36.897Z,17.33
2019-02-10T12:41:04.978Z,18.43
2019-02-10T12:43:32.814Z,17.37
2019-02-10T12:46:00.917Z,14.30
2019-02-10T12:48:28.860Z,24.30
2019-02-10T12:50:56.925Z,16.90
2019-02-10T12:53:24.793Z,15.03
2019-02-10T12:55:52.989Z,17.27
2019-02-10T12:58:20.960Z,19.10
2019-02-10T13:00:49.077Z,17.33
2019-02-10T13:03:17.148Z,17.60
2019-02-10T13:05:45.067Z,18.40
2019-02-10T13:08:13.144Z,19.50
2019-02-10T13:10:43.847Z,20.17
2019-02-10T13:13:19.153Z,38.63
2019-02-10T13:15:42.073Z,21.50
2019-02-10T13:18:09.895Z,23.73
2019-02-10T13:20:37.860Z,27.23
2019-02-10T13:23:05.946Z,31.93
2019-02-10T13:25:33.849Z,21.67
2019-02-10T13:28:01.718Z,22.27
2019-02-10T13:30:30.431Z,19.30
2019-02-10T13:32:58.506Z,23.30
2019-02-10T13:35:26.455Z,25.10
2019-02-10T13:37:54.279Z,23.83
2019-02-10T13:40:22.180Z,22.30
2019-02-10T13:42:50.286Z,26.07
2019-02-10T13:45:18.234Z,24.37
2019-02-10T13:47:46.326Z,37.73
2019-02-10T13:50:15.098Z,27.63
2019-02-10T13:52:43.083Z,41.00
2019-02-10T13:55:11.605Z,30.07
2019-02-10T13:57:39.624Z,30.23
2019-02-10T14:00:11.019Z,34.60
2019-02-10T14:02:39.462Z,34.30
2019-02-10T14:05:07.488Z,23.07
2019-02-10T14:07:35.361Z,43.43
2019-02-10T14:10:03.589Z,25.87
2019-02-10T14:12:31.477Z,27.87
2019-02-10T14:14:59.378Z,29.67
2019-02-10T14:17:27.911Z,30.67
2019-02-10T14:19:55.823Z,24.13
2019-02-10T14:22:23.677Z,29.23
2019-02-10T14:24:51.570Z,27.37
2019-02-10T14:27:19.487Z,29.60
2019-02-10T14:29:47.658Z,29.03
2019-02-10T14:32:16.037Z,28.87
2019-02-10T14:34:44.736Z,29.50
2019-02-10T14:37:12.718Z,33.47
2019-02-10T14:39:40.533Z,30.67
2019-02-10T14:42:08.489Z,33.93
2019-02-10T14:44:36.417Z,31.73
2019-02-10T14:47:04.703Z,30.13
2019-02-10T14:49:32.505Z,32.53
2019-02-10T14:52:00.402Z,33.30
2019-02-10T14:54:28.218Z,32.23
2019-02-10T14:56:56.109Z,33.10
2019-02-10T14:59:25.709Z,29.30
2019-02-10T15:01:53.629Z,39.73
2019-02-10T15:04:22.098Z,35.07
2019-02-10T15:06:50.118Z,36.90
2019-02-10T15:09:18.696Z,52.13
2019-02-10T15:11:46.600Z,36.70
2019-02-10T15:14:14.585Z,43.43
2019-02-10T15:16:42.385Z,32.83
2019-02-10T15:19:10.254Z,37.53
2019-02-10T15:21:38.070Z,49.53
2019-02-10T15:24:06.038Z,48.67
2019-02-10T15:26:33.833Z,43.17
2019-02-10T15:29:01.679Z,52.97
2019-02-10T15:31:29.586Z,39.90
2019-02-10T15:33:57.770Z,48.30
2019-02-10T15:36:25.637Z,45.03
2019-02-10T15:38:54.271Z,37.60
2019-02-10T15:41:22.220Z,40.20
2019-02-10T15:43:50.198Z,43.37
2019-02-10T15:46:19.088Z,39.60
2019-02-10T15:48:47.069Z,55.87
2019-02-10T15:51:15.279Z,53.63
2019-02-10T15:53:43.143Z,32.93
2019-02-10T15:56:11.573Z,29.97
2019-02-10T15:58:39.516Z,34.77
2019-02-10T16:01:07.874Z,42.43
2019-02-10T16:03:35.835Z,34.47
2019-02-10T16:06:03.834Z,32.97
2019-02-10T16:08:31.745Z,28.73
2019-02-10T16:10:59.689Z,34.03
2019-02-10T16:13:27.553Z,34.40
2019-02-10T16:15:55.467Z,33.03
2019-02-10T16:18:23.358Z,40.80
2019-02-10T16:20:51.157Z,64.20
2019-02-10T16:23:19.141Z,35.07
2019-02-10T16:25:46.945Z,43.17
2019-02-10T16:28:15.632Z,41.43
2019-02-10T16:30:43.525Z,49.23
2019-02-10T16:33:11.500Z,58.77
2019-02-10T16:35:39.843Z,64.47
2019-02-10T16:38:07.726Z,53.60
2019-02-10T16:40:35.566Z,54.10
2019-02-10T16:43:03.563Z,57.37
2019-02-10T16:45:31.691Z,56.60
2019-02-10T16:47:59.595Z,59.70
2019-02-10T16:50:27.549Z,56.13
2019-02-10T16:52:55.339Z,56.57
2019-02-10T16:55:23.211Z,49.90
2019-02-10T16:57:51.049Z,60.27
2019-02-10T17:00:19.137Z,58.70
2019-02-10T17:02:46.976Z,56.17
2019-02-10T17:05:14.887Z,50.73
2019-02-10T17:07:53.225Z,55.57
2019-02-10T17:10:21.482Z,65.07
2019-02-10T17:12:49.514Z,51.17
2019-02-10T17:15:17.496Z,48.90
2019-02-10T17:17:45.312Z,52.80
2019-02-10T17:20:13.281Z,47.57
2019-02-10T17:22:41.204Z,49.93
2019-02-10T17:25:11.481Z,50.57
2019-02-10T17:27:39.984Z,59.53
2019-02-10T17:30:08.397Z,52.33
2019-02-10T17:32:39.224Z,60.37
2019-02-10T17:35:08.056Z,58.10
2019-02-10T17:37:36.158Z,52.37
2019-02-10T17:40:06.463Z,57.10
2019-02-10T17:42:34.787Z,43.27
2019-02-10T17:45:03.042Z,46.27
2019-02-10T17:47:31.045Z,43.97
2019-02-10T17:49:59.006Z,43.13
2019-02-10T17:52:31.807Z,46.53
2019-02-10T17:54:56.785Z,47.30
2019-02-10T17:57:24.711Z,79.70
2019-02-10T17:59:52.607Z,51.40
2019-02-10T18:02:20.541Z,71.70
2019-02-10T18:04:50.088Z,81.03
2019-02-10T18:07:17.880Z,82.87
2019-02-10T18:09:57.966Z,61.70
2019-02-10T18:12:25.854Z,43.87
2019-02-10T18:15:11.850Z,40.08
2019-02-10T18:18:05.910Z,56.23
2019-02-10T18:20:53.020Z,47.83
2019-02-10T18:23:40.410Z,44.37
2019-02-10T18:26:34.015Z,53.45
2019-02-10T18:29:21.594Z,40.83
2019-02-10T18:32:03.472Z,41.57
2019-02-10T18:34:37.630Z,37.23
2019-02-10T18:37:14.780Z,42.67
2019-02-10T18:40:05.263Z,41.03
2019-02-10T18:42:49.579Z,37.87
2019-02-10T18:45:36.891Z,42.57
2019-02-10T18:48:39.406Z,37.10
2019-02-10T18:51:31.335Z,34.90
2019-02-10T18:54:24.696Z,36.60
2019-02-10T18:57:12.637Z,37.03
2019-02-10T18:59:58.804Z,37.10
2019-02-10T19:03:04.496Z,37.30
2019-02-10T19:05:50.225Z,41.77
2019-02-10T19:08:32.183Z,49.90
2019-02-10T19:11:05.820Z,51.97
2019-02-10T19:14:09.500Z,54.97
2019-02-10T19:16:59.207Z,50.30
2019-02-10T19:19:49.567Z,54.97
2019-02-10T19:22:31.791Z,55.37
2019-02-10T19:25:22.018Z,56.17
2019-02-10T19:28:15.344Z,61.40
2019-02-10T19:30:56.080Z,64.37
2019-02-10T19:33:43.509Z,69.00
2019-02-10T19:36:37.223Z,72.47
2019-02-10T19:39:27.347Z,88.80
2019-02-10T19:42:18.094Z,73.87
2019-02-10T19:45:09.294Z,60.57
2019-02-10T19:47:53.801Z,50.17
2019-02-10T19:50:41.228Z,47.90
2019-02-10T19:53:31.639Z,62.20
2019-02-10T19:56:18.300Z,63.43
2019-02-10T19:59:04.345Z,58.40
2019-02-10T20:01:57.714Z,62.65
2019-02-10T20:04:43.982Z,61.37
2019-02-10T20:07:29.065Z,66.60
2019-02-10T20:10:22.549Z,60.60
2019-02-10T20:13:16.712Z,69.42
2019-02-10T20:16:03.974Z,70.30
2019-02-10T20:19:03.275Z,49.97
2019-02-10T20:21:38.781Z,38.20
2019-02-10T20:24:25.561Z,41.13
2019-02-10T20:27:15.707Z,38.50
2019-02-10T20:30:21.223Z,39.67
2019-02-10T20:33:12.269Z,39.83
2019-02-10T20:35:46.497Z,37.50
2019-02-10T20:38:36.771Z,36.03
2019-02-10T20:41:27.293Z,39.60
2019-02-10T20:44:01.725Z,36.63
2019-02-10T20:47:04.674Z,39.70
2019-02-10T20:49:48.137Z,36.33
2019-02-10T20:52:30.358Z,42.80
2019-02-10T20:55:09.962Z,36.10
2019-02-10T20:58:06.676Z,37.13
2019-02-10T21:00:52.762Z,35.37
2019-02-10T21:03:32.767Z,41.37
2019-02-10T21:06:21.841Z,41.13
2019-02-10T21:09:17.937Z,36.03
2019-02-10T21:12:08.358Z,35.70
2019-02-10T21:14:58.955Z,36.77
2019-02-10T21:17:49.266Z,36.47
2019-02-10T21:20:38.703Z,39.60
2019-02-10T21:23:35.021Z,36.88
2019-02-10T21:26:22.374Z,36.50
2019-02-10T21:29:09.764Z,34.97
2019-02-10T21:32:06.129Z,40.63
2019-02-10T21:34:48.740Z,36.67
2019-02-10T21:37:39.293Z,36.25
2019-02-10T21:40:16.466Z,35.63
2019-02-10T21:42:57.831Z,29.67
2019-02-10T21:45:47.907Z,29.98
2019-02-10T21:48:22.791Z,35.10
2019-02-10T21:50:51.109Z,36.33
2019-02-10T21:53:19.039Z,29.63
2019-02-10T21:55:46.992Z,27.80
2019-02-10T21:58:14.905Z,31.17
2019-02-10T22:00:42.863Z,25.57
2019-02-10T22:03:10.745Z,28.60
2019-02-10T22:05:38.772Z,21.40
2019-02-10T22:08:06.545Z,26.20
2019-02-10T22:10:34.633Z,23.97
2019-02-10T22:13:02.543Z,21.70
2019-02-10T22:15:30.505Z,22.13
2019-02-10T22:17:58.447Z,23.27
2019-02-10T22:20:26.248Z,23.27
2019-02-10T22:22:54.224Z,24.73
2019-02-10T22:25:22.231Z,21.40
2019-02-10T22:27:50.099Z,22.73
2019-02-10T22:30:18.858Z,21.87
2019-02-10T22:32:46.926Z,23.57
2019-02-10T22:35:14.780Z,22.80
2019-02-10T22:37:42.851Z,23.20
2019-02-10T22:40:10.924Z,26.27
2019-02-10T22:42:45.379Z,19.47
2019-02-10T22:45:10.088Z,24.93
2019-02-10T22:47:38.038Z,24.63
2019-02-10T22:50:09.526Z,23.17
2019-02-10T22:52:37.718Z,20.73
2019-02-10T22:55:05.793Z,20.40
2019-02-10T22:57:33.653Z,18.40
2019-02-10T23:00:01.585Z,19.43
2019-02-10T23:02:32.359Z,17.77
2019-02-10T23:05:00.325Z,17.23
2019-02-10T23:07:29.151Z,21.23
2019-02-10T23:09:57.257Z,20.27
2019-02-10T23:12:25.165Z,23.43
2019-02-10T23:14:53.067Z,19.50
2019-02-10T23:17:21.107Z,20.27
2019-02-10T23:19:49.059Z,23.27
2019-02-10T23:22:17.038Z,22.07
2019-02-10T23:24:44.854Z,21.83
2019-02-10T23:27:12.831Z,19.73
2019-02-10T23:29:40.725Z,21.20
2019-02-10T23:32:08.706Z,19.17
2019-02-10T23:34:36.530Z,18.33
2019-02-10T23:37:04.409Z,22.37
2019-02-10T23:39:32.508Z,19.37
2019-02-10T23:42:00.303Z,17.80
2019-02-10T23:44:28.292Z,16.67
2019-02-10T23:46:56.976Z,16.03
2019-02-10T23:49:24.987Z,15.53
2019-02-10T23:51:52.893Z,16.57
2019-02-10T23:54:20.832Z,16.37
2019-02-10T23:56:48.825Z,13.70
2019-02-10T23:59:16.737Z,15.53
